Terminal Aerodrome Forecast
Issued by NWS

Home | Current Version | Previous Version | Text Only | Print | Product List | Glossary On
Versions: 1 2 3 4 5 6 7 8 9 10 11 12 13 14
000
FTUS43 KIND 050500
TAFBMG
TAF
KBMG 050520Z 0506/0606 21004KT P6SM SCT080 BKN250
     FM051400 22010KT P6SM SCT050 BKN250
     FM060100 18002KT P6SM BKN250
      AMD LTD TO CLD VIS AND WIND TIL 051300=

USA.gov is the U.S. government's official web portal to all federal, state and local government web resources and services.